Time;durP1;ratioP1;P1;durP2;ratioP2;P2;SDS_P1;SDS_P2;PMS_P1;PMS_P2;Temp;Humidity;BMP_temperature;BMP_pressure;BME280_temperature;BME280_humidity;BME280_pressure;Samples;Min_cycle;Max_cycle;Signal;HPM_P1;HPM_P2
2021/12/16 00:02:14;;;;;;;24.77;18.17;;;;;;;6.34;64.23;100947.69;5046541;28;20234;-63
2021/12/16 00:31:22;;;;;;;20.03;15.80;;;;;;;5.39;68.08;100982.75;5029139;28;20231;-63
2021/12/16 00:34:01;;;;;;;20.23;16.20;;;;;;;5.86;66.37;100963.59;5048720;28;20258;-63
2021/12/16 00:36:35;;;;;;;22.07;16.47;;;;;;;5.91;66.28;100959.63;5049791;28;20227;-63
2021/12/16 00:39:13;;;;;;;19.47;15.30;;;;;;;6.02;65.92;100950.91;5049313;28;20226;-63
2021/12/16 00:41:43;;;;;;;19.93;14.90;;;;;;;6.13;64.96;100943.00;5050112;28;20232;-63
2021/12/16 00:49:50;;;;;;;20.13;15.03;;;;;;;5.43;67.71;100964.88;5047040;28;20228;-63
2021/12/16 00:55:34;;;;;;;19.77;15.70;;;;;;;5.39;68.11;100961.56;5048970;28;20228;-63
2021/12/16 00:58:01;;;;;;;22.57;16.97;;;;;;;5.30;68.84;100972.81;5049036;28;20236;-63
2021/12/16 01:00:30;;;;;;;19.20;15.80;;;;;;;5.03;70.25;100987.00;5049693;28;20228;-63
2021/12/16 01:08:22;;;;;;;21.07;16.07;;;;;;;5.47;67.98;100958.41;5049751;28;20250;-63
2021/12/16 01:49:13;;;;;;;20.80;15.40;;;;;;;5.24;68.66;100976.75;5016895;28;20693;-64
2021/12/16 01:57:33;;;;;;;19.17;15.10;;;;;;;5.15;69.53;100976.53;5033964;28;20231;-63
2021/12/16 01:59:59;;;;;;;20.07;14.33;;;;;;;5.36;69.19;100979.47;5028507;28;20235;-62
2021/12/16 02:10:31;;;;;;;17.80;14.27;;;;;;;4.93;70.38;100987.75;5027977;28;20232;-63
2021/12/16 02:35:12;;;;;;;21.87;17.47;;;;;;;5.59;68.77;100968.09;5028177;28;20234;-63
2021/12/16 02:37:46;;;;;;;22.90;16.90;;;;;;;4.05;74.82;101004.94;5047809;28;20227;-64
2021/12/16 02:40:14;;;;;;;20.67;15.23;;;;;;;4.00;73.65;100996.47;5046388;28;20228;-63
2021/12/16 02:43:03;;;;;;;21.20;16.60;;;;;;;5.07;70.51;100977.94;5037418;28;20973;-63
2021/12/16 02:48:30;;;;;;;21.40;16.73;;;;;;;2.41;79.34;101000.78;5028157;28;20730;-63
2021/12/16 02:51:07;;;;;;;20.93;16.00;;;;;;;3.83;73.42;100968.50;5027108;28;20606;-63
2021/12/16 02:53:37;;;;;;;22.77;17.13;;;;;;;4.70;70.72;100955.75;5044295;28;20236;-63
2021/12/16 02:56:04;;;;;;;21.07;16.83;;;;;;;5.09;70.28;100940.75;5047144;28;20231;-63
2021/12/16 02:58:34;;;;;;;24.13;16.03;;;;;;;4.94;70.64;100963.84;5046802;28;20220;-63
2021/12/16 03:01:08;;;;;;;20.73;15.07;;;;;;;2.80;77.13;100999.38;5048062;28;20640;-64
2021/12/16 03:03:38;;;;;;;20.73;16.23;;;;;;;2.87;78.02;101013.88;5047006;28;20223;-63
2021/12/16 03:06:06;;;;;;;19.33;15.27;;;;;;;3.38;78.05;101007.38;5047773;28;20228;-62
2021/12/16 03:08:34;;;;;;;19.00;14.80;;;;;;;4.10;74.08;100973.78;5036878;28;20226;-63
2021/12/16 03:14:00;;;;;;;18.00;14.43;;;;;;;3.39;77.18;101007.28;5027782;28;20267;-63
2021/12/16 03:17:16;;;;;;;19.00;14.53;;;;;;;4.67;72.82;100958.59;5036377;28;20235;-63
2021/12/16 03:19:26;;;;;;;20.73;13.87;;;;;;;4.20;71.21;100954.69;5047502;28;20247;-63
2021/12/16 03:21:57;;;;;;;17.37;13.77;;;;;;;2.04;81.36;101021.28;5045601;28;20235;-63
2021/12/16 03:37:44;;;;;;;16.50;12.23;;;;;;;2.44;80.20;101012.91;5027595;28;20236;-62
2021/12/16 03:40:14;;;;;;;15.60;11.70;;;;;;;2.04;82.46;101025.69;5026073;28;20775;-62
2021/12/16 03:42:45;;;;;;;16.70;12.60;;;;;;;3.69;77.22;100960.59;5042870;28;20715;-63
2021/12/16 03:48:26;;;;;;;18.33;12.00;;;;;;;2.62;79.59;101011.84;5046040;28;20221;-62
2021/12/16 03:50:53;;;;;;;15.00;10.97;;;;;;;3.42;77.76;100986.00;5030652;28;20637;-63
2021/12/16 03:53:20;;;;;;;16.10;12.53;;;;;;;3.74;74.40;100967.31;5030359;28;20227;-63
2021/12/16 03:55:49;;;;;;;17.73;12.83;;;;;;;3.97;75.55;100978.16;5030743;28;20634;-63
2021/12/16 03:58:16;;;;;;;18.03;12.33;;;;;;;3.36;74.72;100985.53;5050429;28;20842;-62
2021/12/16 04:00:49;;;;;;;16.63;11.60;;;;;;;4.39;74.31;100964.91;5032507;28;20227;-63
2021/12/16 04:03:16;;;;;;;15.73;12.57;;;;;;;5.09;70.60;100941.63;5030811;28;20700;-62
2021/12/16 04:05:45;;;;;;;15.93;11.67;;;;;;;3.64;76.57;101015.47;5030309;28;20403;-63
2021/12/16 04:08:13;;;;;;;17.20;12.67;;;;;;;4.08;73.86;100986.25;5030540;28;20654;-63
2021/12/16 04:10:48;;;;;;;16.17;12.43;;;;;;;2.50;78.45;101023.94;5030045;28;20598;-62
2021/12/16 04:13:17;;;;;;;15.70;12.07;;;;;;;3.44;75.82;101001.75;5038798;28;20222;-63
2021/12/16 04:15:44;;;;;;;17.40;11.87;;;;;;;2.27;79.13;101014.72;5050557;28;20254;-62
2021/12/16 04:18:12;;;;;;;15.87;11.37;;;;;;;2.12;84.03;101047.19;5040471;28;20225;-63
2021/12/16 04:20:39;;;;;;;15.73;11.27;;;;;;;1.91;83.81;101036.91;5030396;28;20247;-62
2021/12/16 04:23:08;;;;;;;16.23;12.67;;;;;;;3.31;78.88;100990.22;5041262;28;20224;-63
2021/12/16 04:25:40;;;;;;;16.90;12.83;;;;;;;2.39;81.58;101038.66;5050607;28;20235;-62
2021/12/16 04:28:18;;;;;;;15.43;11.37;;;;;;;2.82;80.17;101033.56;5050587;28;20232;-62
2021/12/16 04:30:46;;;;;;;16.13;10.97;;;;;;;4.49;73.50;100958.06;5032409;28;20600;-62
2021/12/16 04:33:13;;;;;;;13.17;10.63;;;;;;;2.10;81.11;101051.69;5049242;28;20742;-62
2021/12/16 04:35:41;;;;;;;14.57;10.90;;;;;;;2.93;78.32;101040.81;5049673;28;20242;-66
2021/12/16 04:38:11;;;;;;;14.43;10.30;;;;;;;2.42;78.70;101031.44;5050213;28;20223;-66
2021/12/16 04:40:39;;;;;;;14.97;10.80;;;;;;;2.29;80.47;101033.06;5030718;28;20229;-65
2021/12/16 04:43:08;;;;;;;13.90;10.93;;;;;;;2.00;82.69;101055.75;5040408;28;20231;-66
2021/12/16 04:45:35;;;;;;;17.03;10.13;;;;;;;1.97;81.44;101040.97;5048425;28;20874;-63
2021/12/16 04:48:05;;;;;;;15.80;10.00;;;;;;;2.26;82.09;101049.06;5039030;28;20235;-63
2021/12/16 04:50:32;;;;;;;13.63;9.93;;;;;;;1.80;82.64;101055.03;5029898;28;20233;-63
2021/12/16 04:52:59;;;;;;;12.83;10.20;;;;;;;3.56;78.63;100994.84;5029347;28;20230;-64
2021/12/16 04:55:26;;;;;;;14.23;9.80;;;;;;;3.86;76.32;100984.16;5047963;28;20252;-63
2021/12/16 04:57:53;;;;;;;12.50;9.80;;;;;;;1.92;81.30;101040.38;5060719;28;20596;-64
2021/12/16 05:02:45;;;;;;;11.57;8.87;;;;;;;1.79;82.63;101028.84;5053598;28;20585;-66
2021/12/16 05:05:12;;;;;;;14.73;9.73;;;;;;;1.02;84.97;101039.78;5012407;28;20232;-65
2021/12/16 05:07:42;;;;;;;15.03;9.03;;;;;;;1.62;84.33;101038.50;5023439;28;20226;-65
2021/12/16 05:10:13;;;;;;;12.07;8.53;;;;;;;2.29;82.26;101020.78;4995171;28;20221;-65
2021/12/16 05:12:50;;;;;;;12.93;9.37;;;;;;;2.78;78.49;101000.41;5002773;28;20231;-65
2021/12/16 05:15:21;;;;;;;13.23;8.47;;;;;;;3.24;78.69;101001.13;5008611;28;20230;-66
2021/12/16 05:17:51;;;;;;;11.80;8.87;;;;;;;3.40;76.94;100997.56;5022941;28;20237;-65
2021/12/16 05:20:25;;;;;;;13.60;9.47;;;;;;;1.94;80.23;101046.44;5023654;28;20229;-65
2021/12/16 05:28:16;;;;;;;13.10;8.60;;;;;;;2.73;80.16;101042.00;5030160;28;20274;-65
2021/12/16 05:30:44;;;;;;;12.43;8.40;;;;;;;1.87;81.53;101066.97;5012630;28;20228;-65
2021/12/16 05:33:12;;;;;;;13.57;9.23;;;;;;;2.00;80.72;101064.50;5005704;28;20340;-65
2021/12/16 05:35:39;;;;;;;13.00;9.20;;;;;;;2.43;80.24;101056.84;5004155;28;20233;-64
2021/12/16 05:38:06;;;;;;;10.47;8.00;;;;;;;2.77;79.23;101043.53;5005393;28;20712;-65
2021/12/16 05:40:34;;;;;;;12.37;7.60;;;;;;;2.59;77.62;101046.28;5013888;28;20350;-65
2021/12/16 05:43:06;;;;;;;15.07;7.80;;;;;;;2.76;79.14;101047.91;5024646;28;20315;-65
2021/12/16 05:45:34;;;;;;;10.13;7.27;;;;;;;2.78;78.55;101050.47;5024464;28;20300;-63
2021/12/16 05:48:03;;;;;;;11.77;8.53;;;;;;;2.67;78.55;101061.66;5019294;28;75868;-62
2021/12/16 05:50:34;;;;;;;10.70;7.50;;;;;;;1.49;82.42;101085.63;4148779;28;10000963;-62
2021/12/16 05:53:31;;;;;;;11.90;7.83;;;;;;;2.19;82.28;101066.09;5027500;28;20686;-62
2021/12/16 05:56:00;;;;;;;11.63;8.30;;;;;;;1.08;84.20;101088.59;5001394;28;20229;-62
2021/12/16 05:58:27;;;;;;;10.47;7.57;;;;;;;2.19;82.32;101069.63;5006839;28;20303;-62
2021/12/16 06:01:01;;;;;;;9.47;7.50;;;;;;;0.93;83.75;101095.47;5004647;28;20252;-62
2021/12/16 06:03:29;;;;;;;10.80;8.03;;;;;;;2.31;82.45;101068.91;5004283;28;20707;-63
2021/12/16 06:05:56;;;;;;;11.27;8.23;;;;;;;3.32;75.99;101031.50;5004798;28;20806;-63
2021/12/16 06:08:24;;;;;;;10.40;7.33;;;;;;;1.90;81.44;101101.00;5003201;28;20233;-63
2021/12/16 06:13:30;;;;;;;9.40;7.47;;;;;;;2.91;77.38;101053.25;5014934;28;20243;-63
2021/12/16 06:26:57;;;;;;;9.37;6.77;;;;;;;3.26;78.11;101053.78;5027664;28;20685;-62
2021/12/16 06:29:24;;;;;;;8.50;6.67;;;;;;;3.86;73.55;101034.31;5042887;28;20232;-63
2021/12/16 06:31:52;;;;;;;12.37;7.03;;;;;;;4.22;71.79;101016.22;5033371;28;20225;-63
2021/12/16 06:34:19;;;;;;;9.37;7.37;;;;;;;2.83;76.96;101098.50;5022331;28;20873;-62
2021/12/16 06:36:46;;;;;;;9.20;6.80;;;;;;;4.26;72.28;101050.22;5024714;28;20235;-63
2021/12/16 06:39:14;;;;;;;10.67;6.67;;;;;;;2.69;75.87;101092.22;5023159;28;20231;-63
2021/12/16 06:41:41;;;;;;;9.23;6.30;;;;;;;3.76;74.66;101075.41;5023249;28;20220;-63
2021/12/16 06:44:34;;;;;;;11.17;7.77;;;;;;;4.22;72.38;101040.81;5004697;28;20221;-63
2021/12/16 06:47:06;;;;;;;16.13;9.80;;;;;;;4.22;72.60;101058.47;5003911;28;20580;-63
2021/12/16 06:49:35;;;;;;;17.17;11.57;;;;;;;3.45;72.93;101060.63;5004717;28;20622;-63
2021/12/16 06:52:05;;;;;;;10.20;8.00;;;;;;;2.09;78.75;101105.25;5002886;28;20229;-63
2021/12/16 06:54:52;;;;;;;9.10;6.60;;;;;;;3.01;77.09;101102.69;5002725;28;20233;-63
2021/12/16 06:57:25;;;;;;;9.57;6.87;;;;;;;3.77;74.67;101079.75;5024537;28;20220;-63
2021/12/16 07:00:16;;;;;;;9.20;7.27;;;;;;;2.72;75.25;101096.47;5026339;28;20318;-63
2021/12/16 07:05:30;;;;;;;11.00;7.53;;;;;;;3.84;73.75;101064.38;5010120;28;20229;-63
2021/12/16 07:07:59;;;;;;;8.77;6.57;;;;;;;2.91;76.55;101113.88;5010998;28;20704;-62
2021/12/16 07:10:29;;;;;;;9.00;6.63;;;;;;;3.18;75.25;101101.69;5010096;28;20236;-63
2021/12/16 07:12:58;;;;;;;8.83;6.60;;;;;;;3.96;73.21;101077.66;5009016;28;20234;-63
2021/12/16 07:15:29;;;;;;;8.80;6.47;;;;;;;1.94;78.48;101128.84;5010326;28;20259;-63
2021/12/16 07:17:57;;;;;;;10.17;6.77;;;;;;;2.73;77.89;101139.47;5010230;28;20237;-63
2021/12/16 07:20:28;;;;;;;7.53;5.57;;;;;;;4.04;73.21;101090.34;5010714;28;20240;-63
2021/12/16 07:23:01;;;;;;;8.57;6.40;;;;;;;1.59;78.86;101138.59;5010068;28;20730;-62
2021/12/16 07:25:28;;;;;;;13.13;8.37;;;;;;;1.68;81.43;101168.84;5015044;28;20220;-63
2021/12/16 07:27:55;;;;;;;10.10;6.73;;;;;;;3.77;74.46;101088.50;5012010;28;20606;-63
2021/12/16 07:30:25;;;;;;;9.33;5.93;;;;;;;1.64;79.43;101148.91;5009589;28;20237;-62
2021/12/16 07:32:52;;;;;;;9.57;7.17;;;;;;;1.50;82.11;101170.63;5010164;28;20598;-62
2021/12/16 07:35:26;;;;;;;7.80;6.13;;;;;;;3.14;78.40;101117.81;5010049;28;20601;-62
2021/12/16 07:37:54;;;;;;;7.83;5.63;;;;;;;3.17;74.53;101107.06;5010565;28;20244;-63
2021/12/16 07:40:25;;;;;;;8.87;7.07;;;;;;;3.77;74.33;101096.41;5009507;28;20242;-62
2021/12/16 07:45:28;;;;;;;11.30;7.97;;;;;;;1.73;81.69;101178.19;5023479;28;20235;-63
2021/12/16 07:47:55;;;;;;;10.15;7.78;;;;;;;1.91;81.96;101173.75;5029005;28;20425;-62
2021/12/16 07:50:23;;;;;;;8.27;6.33;;;;;;;2.03;80.48;101161.72;5029308;28;20609;-63
2021/12/16 07:52:50;;;;;;;9.67;7.37;;;;;;;2.48;80.29;101154.88;5028786;28;20249;-63
2021/12/16 07:55:18;;;;;;;13.73;10.47;;;;;;;1.63;82.02;101176.13;5029445;28;20228;-62
2021/12/16 07:57:46;;;;;;;12.00;8.77;;;;;;;1.49;83.40;101192.59;5011469;28;20235;-63
2021/12/16 08:00:21;;;;;;;7.37;6.33;;;;;;;3.45;74.51;101101.03;5009952;28;20612;-63
2021/12/16 08:02:48;;;;;;;12.80;7.57;;;;;;;3.80;74.14;101098.03;5008683;28;20640;-62
2021/12/16 08:05:19;;;;;;;16.67;11.97;;;;;;;3.05;76.06;101154.31;5009309;28;20233;-63
2021/12/16 08:07:46;;;;;;;10.87;8.90;;;;;;;2.98;78.09;101149.47;5009406;28;20721;-62
2021/12/16 08:10:18;;;;;;;12.53;8.03;;;;;;;3.76;75.11;101121.13;5009497;28;20229;-62
2021/12/16 08:12:45;;;;;;;14.00;9.77;;;;;;;1.86;79.00;101181.03;5008645;28;21523;-62
2021/12/16 08:15:15;;;;;;;9.70;6.80;;;;;;;3.32;76.25;101145.78;5008431;28;20233;-63
2021/12/16 08:17:43;;;;;;;11.20;6.33;;;;;;;2.21;77.46;101174.84;5009481;28;20240;-63
2021/12/16 08:20:16;;;;;;;7.60;6.23;;;;;;;3.69;74.09;101133.00;5009201;28;20251;-62
2021/12/16 08:22:48;;;;;;;9.20;7.40;;;;;;;3.54;76.49;101169.09;5007921;28;20653;-63
2021/12/16 08:25:18;;;;;;;10.73;8.20;;;;;;;3.23;77.31;101173.47;5005222;28;20703;-63
2021/12/16 08:27:46;;;;;;;9.00;6.37;;;;;;;4.43;72.06;101133.69;5007349;28;20230;-63
2021/12/16 08:30:16;;;;;;;9.53;7.10;;;;;;;3.91;72.45;101137.81;5009831;28;20752;-62
2021/12/16 08:32:44;;;;;;;10.33;7.67;;;;;;;4.58;71.22;101129.19;5006269;28;20241;-62
2021/12/16 08:35:11;;;;;;;11.07;8.47;;;;;;;4.26;73.17;101136.56;4989721;28;20241;-63
2021/12/16 08:37:39;;;;;;;10.80;7.70;;;;;;;4.71;71.06;101138.03;4989572;28;20243;-63
2021/12/16 08:40:11;;;;;;;11.07;7.80;;;;;;;4.85;70.40;101133.66;4989146;28;20234;-63
2021/12/16 08:42:38;;;;;;;10.07;7.90;;;;;;;4.33;71.98;101140.50;4996495;28;20672;-63
2021/12/16 08:45:12;;;;;;;11.53;8.10;;;;;;;4.61;71.58;101144.03;5008666;28;20248;-63
2021/12/16 08:47:39;;;;;;;10.17;7.77;;;;;;;4.86;70.08;101133.53;5009022;28;20232;-63
2021/12/16 08:50:10;;;;;;;11.33;8.23;;;;;;;4.95;70.23;101152.44;5009232;28;20229;-62
2021/12/16 08:52:37;;;;;;;11.83;8.47;;;;;;;5.29;68.56;101143.09;4989533;28;20734;-63
2021/12/16 08:55:05;;;;;;;10.47;8.20;;;;;;;4.81;70.26;101145.38;5007447;28;20221;-63
2021/12/16 08:57:32;;;;;;;10.73;7.87;;;;;;;4.90;70.14;101165.91;5008572;28;20233;-62
2021/12/16 08:59:59;;;;;;;11.17;7.93;;;;;;;4.28;71.79;101188.34;5008475;28;20237;-63
2021/12/16 09:02:26;;;;;;;11.53;8.60;;;;;;;4.60;71.40;101182.81;5004705;28;20230;-62
2021/12/16 09:04:53;;;;;;;12.23;8.93;;;;;;;4.69;71.33;101186.69;5025350;28;20235;-63
2021/12/16 09:07:20;;;;;;;16.27;8.27;;;;;;;5.13;69.52;101179.47;5008971;28;20242;-62
2021/12/16 09:09:47;;;;;;;9.13;7.93;;;;;;;4.95;69.77;101186.81;5001361;28;20230;-63
2021/12/16 09:14:59;;;;;;;20.07;14.07;;;;;;;3.75;75.43;101217.06;4998160;28;20237;-63
2021/12/16 09:17:27;;;;;;;14.93;10.77;;;;;;;5.14;70.20;101168.75;5008457;28;20902;-63
2021/12/16 09:19:55;;;;;;;14.10;10.87;;;;;;;4.94;70.87;101179.81;5001420;28;20232;-63
2021/12/16 09:22:25;;;;;;;14.03;10.67;;;;;;;4.47;71.89;101188.03;5006896;28;20270;-63
2021/12/16 09:24:53;;;;;;;15.17;9.73;;;;;;;4.76;71.27;101181.84;5004642;28;20228;-63
2021/12/16 09:27:21;;;;;;;15.97;10.13;;;;;;;4.26;72.43;101202.59;4989415;28;20246;-63
2021/12/16 09:29:49;;;;;;;13.47;10.07;;;;;;;5.20;70.00;101184.25;4992860;28;20229;-63
2021/12/16 09:32:17;;;;;;;13.90;9.63;;;;;;;5.43;68.45;101166.84;5012505;28;20218;-62
2021/12/16 09:34:45;;;;;;;13.97;10.70;;;;;;;5.14;69.17;101176.69;5007476;28;20438;-63
2021/12/16 09:37:12;;;;;;;13.07;9.40;;;;;;;5.02;70.08;101202.16;4992676;28;20226;-62
2021/12/16 09:39:40;;;;;;;12.13;9.23;;;;;;;5.09;69.94;101195.53;4987666;28;20222;-63
2021/12/16 09:42:09;;;;;;;14.07;10.67;;;;;;;4.23;73.48;101238.00;4991457;28;20217;-63
2021/12/16 09:44:38;;;;;;;14.33;9.93;;;;;;;4.89;70.64;101204.75;5001167;28;20222;-63
2021/12/16 09:47:08;;;;;;;13.57;10.30;;;;;;;4.20;73.76;101237.28;4999075;28;20661;-63
2021/12/16 09:49:35;;;;;;;15.27;10.03;;;;;;;4.78;70.55;101201.94;5008012;28;20224;-63
2021/12/16 09:52:05;;;;;;;12.17;9.33;;;;;;;4.62;71.27;101209.13;5006318;28;20225;-62
2021/12/16 09:54:34;;;;;;;12.77;9.07;;;;;;;4.57;71.58;101216.50;5005116;28;20225;-63
2021/12/16 09:57:04;;;;;;;10.80;8.93;;;;;;;2.91;77.55;101272.03;5007630;28;20221;-62
2021/12/16 09:59:32;;;;;;;11.13;9.10;;;;;;;4.00;75.13;101246.47;5007162;28;20244;-63
2021/12/16 10:02:07;;;;;;;12.07;9.37;;;;;;;3.56;76.30;101256.91;5007662;28;20248;-60
2021/12/16 10:04:35;;;;;;;12.87;9.57;;;;;;;4.85;71.29;101200.59;5006797;28;20609;-61
2021/12/16 10:07:11;;;;;;;11.93;9.20;;;;;;;4.91;71.34;101213.44;5007500;28;20241;-61
2021/12/16 10:09:39;;;;;;;13.73;10.07;;;;;;;3.41;75.62;101265.72;5007472;28;20233;-61
2021/12/16 10:12:13;;;;;;;13.10;9.97;;;;;;;5.31;69.71;101195.91;5007249;28;20235;-61
2021/12/16 10:15:02;;;;;;;13.13;10.10;;;;;;;5.33;69.77;101196.66;5003168;28;20658;-60
2021/12/16 10:17:34;;;;;;;12.63;10.33;;;;;;;5.78;67.97;101186.53;5005357;28;20225;-61
2021/12/16 10:20:11;;;;;;;14.67;10.07;;;;;;;4.86;69.30;101185.59;5016653;23;20247;-67
2021/12/16 10:22:42;;;;;;;13.60;10.37;;;;;;;3.47;77.59;101267.13;5007611;28;20232;-67
2021/12/16 10:25:30;;;;;;;13.57;10.37;;;;;;;5.05;71.80;101203.78;5008983;28;20327;-68
2021/12/16 10:28:09;;;;;;;13.90;10.47;;;;;;;5.44;69.35;101181.75;5008568;28;20244;-68
2021/12/16 10:30:46;;;;;;;13.80;9.87;;;;;;;4.32;74.93;101240.03;4992847;28;20237;-68
2021/12/16 10:33:23;;;;;;;13.50;10.63;;;;;;;5.16;70.31;101179.25;4988936;28;20239;-68
2021/12/16 10:36:17;;;;;;;18.63;14.23;;;;;;;5.55;68.75;101166.97;4985419;28;20603;-67
2021/12/16 10:38:48;;;;;;;16.17;11.40;;;;;;;5.69;67.75;101176.59;4979100;28;20825;-68
2021/12/16 10:41:21;;;;;;;14.07;11.20;;;;;;;3.92;72.40;101220.50;4989407;28;20638;-68
2021/12/16 10:43:53;;;;;;;13.17;10.43;;;;;;;2.96;77.76;101256.78;4983328;28;20220;-67
2021/12/16 10:46:26;;;;;;;14.20;10.47;;;;;;;3.67;75.34;101248.34;4989135;28;20239;-67
2021/12/16 10:49:06;;;;;;;13.77;10.53;;;;;;;3.10;76.49;101250.75;4984781;28;20233;-67
2021/12/16 10:51:49;;;;;;;13.67;10.90;;;;;;;3.43;76.19;101242.72;4983744;28;20222;-67
2021/12/16 10:54:23;;;;;;;16.10;12.17;;;;;;;3.06;77.96;101260.63;4987194;28;20581;-67
2021/12/16 10:57:04;;;;;;;16.77;12.13;;;;;;;4.72;73.42;101202.31;4980476;28;21493;-68
2021/12/16 10:59:45;;;;;;;16.27;10.90;;;;;;;3.84;73.65;101225.38;4990094;28;20705;-68
2021/12/16 11:03:46;;;;;;;15.80;11.93;;;;;;;3.90;74.87;101215.31;5040509;28;20957;-69
2021/12/16 11:06:33;;;;;;;15.40;11.20;;;;;;;3.91;74.52;101224.94;5049757;28;20235;-68
2021/12/16 11:09:40;;;;;;;14.20;11.03;;;;;;;5.35;70.05;101178.91;5051385;28;21706;-68
2021/12/16 11:12:50;;;;;;;18.17;12.20;;;;;;;5.60;68.80;101164.84;5064106;28;20239;-69
2021/12/16 11:15:30;;;;;;;17.87;11.73;;;;;;;4.11;72.35;101213.19;5035130;28;20799;-68
2021/12/16 11:18:06;;;;;;;16.83;12.47;;;;;;;4.10;74.05;101232.59;5046107;28;20250;-68
2021/12/16 11:20:36;;;;;;;15.17;11.97;;;;;;;5.12;71.35;101196.28;5043710;28;20274;-68
2021/12/16 11:23:06;;;;;;;17.70;11.87;;;;;;;4.93;71.87;101201.94;5045725;28;20231;-68
2021/12/16 11:25:44;;;;;;;17.23;12.60;;;;;;;5.51;69.98;101190.13;5045443;28;20237;-69
2021/12/16 11:28:32;;;;;;;18.47;13.17;;;;;;;4.62;72.96;101217.06;5044754;28;20226;-68
2021/12/16 11:31:03;;;;;;;15.80;12.87;;;;;;;5.61;69.68;101179.75;5044829;28;20632;-69
2021/12/16 11:33:34;;;;;;;16.33;12.70;;;;;;;5.62;69.27;101176.16;5025575;28;20230;-69
2021/12/16 11:36:15;;;;;;;17.63;13.23;;;;;;;6.44;66.02;101167.84;5025469;28;20233;-67
2021/12/16 11:38:50;;;;;;;16.30;12.17;;;;;;;5.96;67.99;101179.97;5024718;28;20231;-67
2021/12/16 11:41:17;;;;;;;15.40;12.13;;;;;;;6.28;66.53;101163.63;5025877;28;20220;-67
2021/12/16 11:44:02;;;;;;;18.57;13.73;;;;;;;5.59;69.38;101193.09;5061756;28;20618;-67
2021/12/16 11:46:31;;;;;;;19.70;14.40;;;;;;;5.73;68.75;101183.38;5026646;28;20241;-67
2021/12/16 11:49:26;;;;;;;18.80;14.33;;;;;;;5.16;71.06;101203.94;5025357;28;20375;-67
2021/12/16 11:52:20;;;;;;;20.47;14.57;;;;;;;4.47;73.48;101225.03;5023828;28;20230;-67
2021/12/16 11:54:53;;;;;;;18.30;12.93;;;;;;;2.98;77.63;101247.88;5020098;28;20857;-67
2021/12/16 11:57:28;;;;;;;16.93;12.47;;;;;;;5.10;72.59;101197.22;5038768;28;20230;-68
2021/12/16 12:00:15;;;;;;;20.27;14.63;;;;;;;5.50;69.64;101175.22;5054806;28;20592;-68
2021/12/16 12:02:51;;;;;;;16.87;12.83;;;;;;;6.06;68.07;101163.47;5063951;28;20231;-67
2021/12/16 12:05:57;;;;;;;17.93;12.33;;;;;;;6.03;68.20;101167.16;5063886;28;20223;-68
2021/12/16 12:08:30;;;;;;;21.47;16.40;;;;;;;3.79;74.47;101230.94;5021694;28;20236;-68
2021/12/16 12:11:06;;;;;;;18.53;14.13;;;;;;;5.30;72.46;101196.88;5037364;28;20228;-68
2021/12/16 12:13:38;;;;;;;17.40;13.57;;;;;;;5.72;69.51;101181.69;5028018;28;20228;-68
2021/12/16 12:16:09;;;;;;;18.30;12.73;;;;;;;6.52;66.57;101155.72;5011415;28;20229;-68
2021/12/16 12:18:57;;;;;;;20.73;13.20;;;;;;;6.33;66.73;101160.69;5010042;28;20241;-68
2021/12/16 12:21:39;;;;;;;20.03;14.47;;;;;;;5.96;69.07;101173.84;5026133;28;20236;-68
2021/12/16 12:24:15;;;;;;;18.40;14.00;;;;;;;5.94;68.39;101155.41;5060984;28;20250;-68
2021/12/16 12:27:16;;;;;;;19.37;14.30;;;;;;;4.28;74.29;101222.69;5030444;28;20228;-68
2021/12/16 12:29:46;;;;;;;19.17;13.93;;;;;;;5.98;69.82;101178.06;5002677;28;20239;-67
2021/12/16 12:32:24;;;;;;;17.20;13.37;;;;;;;6.72;66.35;101148.97;5011600;28;20768;-68
2021/12/16 12:35:07;;;;;;;19.17;14.07;;;;;;;7.27;64.39;101136.06;5010721;28;20776;-68
2021/12/16 12:37:37;;;;;;;18.67;14.07;;;;;;;7.21;64.17;101119.75;5011819;28;20239;-68
2021/12/16 12:40:11;;;;;;;18.63;14.60;;;;;;;6.60;66.44;101144.56;5011337;28;20251;-68
2021/12/16 12:42:39;;;;;;;18.77;13.80;;;;;;;6.98;65.12;101130.31;5018343;28;20256;-67
2021/12/16 12:45:08;;;;;;;18.90;14.20;;;;;;;6.64;66.26;101138.06;5031538;28;20230;-67
2021/12/16 12:47:39;;;;;;;18.17;13.73;;;;;;;6.29;67.27;101149.41;5027185;28;20240;-67
2021/12/16 12:50:08;;;;;;;18.37;13.93;;;;;;;5.66;69.05;101159.13;5022396;28;20445;-68
2021/12/16 12:52:36;;;;;;;19.47;14.03;;;;;;;6.43;67.32;101153.75;5035785;28;20231;-68
2021/12/16 12:55:28;;;;;;;20.07;13.90;;;;;;;6.60;66.49;101151.69;5027810;28;20228;-68
2021/12/16 12:58:06;;;;;;;20.13;15.40;;;;;;;7.03;65.60;101144.06;5016291;28;20241;-68
2021/12/16 13:00:40;;;;;;;19.20;15.13;;;;;;;7.32;63.87;101131.25;5021848;28;20603;-68
2021/12/16 13:03:17;;;;;;;19.23;14.47;;;;;;;7.07;64.50;101129.59;5020524;28;20234;-68
2021/12/16 13:05:57;;;;;;;19.03;14.57;;;;;;;7.55;63.30;101123.31;5019465;28;20247;-68
2021/12/16 13:08:34;;;;;;;19.83;13.53;;;;;;;7.35;63.96;101124.00;5020354;28;20226;-68
2021/12/16 13:11:09;;;;;;;18.93;14.70;;;;;;;7.44;62.73;101112.69;5020048;28;20835;-68
2021/12/16 13:13:52;;;;;;;20.70;15.07;;;;;;;7.35;63.59;101130.16;5021236;28;20228;-68
2021/12/16 13:16:55;;;;;;;22.57;16.27;;;;;;;7.38;63.56;101121.13;5020207;28;20254;-67
2021/12/16 13:27:44;;;;;;;19.47;14.53;;;;;;;7.12;64.26;101127.44;5010064;28;20221;-68
2021/12/16 13:30:26;;;;;;;20.93;15.47;;;;;;;7.44;63.08;101129.47;5013852;28;20232;-68
2021/12/16 13:33:20;;;;;;;19.17;15.23;;;;;;;6.85;65.25;101132.19;5024351;28;21646;-68
2021/12/16 13:36:00;;;;;;;19.87;14.93;;;;;;;6.94;65.19;101147.41;5019289;28;20820;-67
2021/12/16 13:38:38;;;;;;;20.43;14.57;;;;;;;7.06;65.14;101143.81;5019526;28;20229;-68
2021/12/16 13:41:12;;;;;;;25.33;16.17;;;;;;;7.40;63.95;101140.44;5019799;28;20219;-68
2021/12/16 13:43:55;;;;;;;19.63;14.37;;;;;;;7.51;63.79;101133.31;5009660;28;20226;-67
2021/12/16 13:46:48;;;;;;;19.73;14.33;;;;;;;6.72;66.37;101154.28;5015408;28;20706;-67
2021/12/16 14:01:16;;;;;;;19.07;14.13;;;;;;;5.43;70.28;101169.47;5033964;28;20241;-67
2021/12/16 14:07:00;;;;;;;18.73;13.37;;;;;;;6.31;68.92;101162.56;5011562;28;20230;-68
2021/12/16 14:09:34;;;;;;;18.03;13.87;;;;;;;6.90;66.78;101149.44;5029033;28;20227;-68
2021/12/16 14:17:49;;;;;;;19.67;13.93;;;;;;;6.98;66.46;101137.41;5043959;28;20238;-68
2021/12/16 14:23:19;;;;;;;18.13;13.97;;;;;;;5.75;68.18;101157.63;5047245;28;20790;-68
2021/12/16 14:37:33;;;;;;;18.87;14.17;;;;;;;7.07;65.80;101139.38;5029428;28;20228;-74
2021/12/16 14:40:17;;;;;;;18.87;13.03;;;;;;;7.49;64.73;101131.78;5042826;28;20240;-74
2021/12/16 14:50:57;;;;;;;21.13;14.50;;;;;;;6.74;67.28;101144.44;5036434;28;20609;-73
2021/12/16 14:53:29;;;;;;;19.27;14.70;;;;;;;6.82;67.14;101140.34;5028957;28;20740;-73
2021/12/16 14:56:02;;;;;;;18.70;13.73;;;;;;;5.15;73.47;101194.28;5027751;28;20228;-74
2021/12/16 14:58:29;;;;;;;29.13;19.03;;;;;;;5.81;70.15;101157.22;5028193;28;20235;-74
2021/12/16 15:01:04;;;;;;;17.50;13.03;;;;;;;6.31;69.44;101160.75;5028898;28;20235;-74
2021/12/16 15:03:37;;;;;;;18.57;13.17;;;;;;;6.45;68.22;101159.78;5026151;28;20232;-74
2021/12/16 15:06:26;;;;;;;20.40;13.40;;;;;;;4.58;74.09;101205.00;5027283;28;20331;-74
2021/12/16 15:09:18;;;;;;;20.23;12.77;;;;;;;5.57;69.97;101162.41;5001961;28;20860;-74
2021/12/16 15:11:58;;;;;;;18.80;13.53;;;;;;;6.35;69.49;101156.09;5026827;28;20286;-74
2021/12/16 15:31:43;;;;;;;15.73;11.83;;;;;;;6.82;67.52;101146.50;5027938;28;20224;-73
2021/12/16 15:45:07;;;;;;;16.60;12.00;;;;;;;7.17;64.44;101163.41;5007966;28;20776;-74
2021/12/16 15:47:47;;;;;;;14.87;11.57;;;;;;;7.41;63.58;101164.19;5015883;28;20233;-73
2021/12/16 15:50:20;;;;;;;17.40;11.87;;;;;;;7.11;64.34;101162.88;5030900;28;20291;-74
2021/12/16 15:52:50;;;;;;;15.03;11.97;;;;;;;7.11;64.52;101176.16;5041085;28;20419;-73
2021/12/16 15:55:38;;;;;;;22.17;14.93;;;;;;;7.03;65.35;101185.66;5038819;28;20220;-74
2021/12/16 15:58:25;;;;;;;18.40;13.83;;;;;;;6.82;65.65;101186.28;5047900;28;20238;-73